sensor_id;sensor_type;location;lat;lon;timestamp;P1;P2;P0
71794;PMS7003;59641;45.188;5.712;2023-02-18T00:01:13;21.25;20.50;14.25
71794;PMS7003;59641;45.188;5.712;2023-02-18T00:03:41;19.50;18.50;14.25
71794;PMS7003;59641;45.188;5.712;2023-02-18T00:06:15;21.00;19.00;13.50
71794;PMS7003;59641;45.188;5.712;2023-02-18T00:08:46;17.75;15.75;13.00
71794;PMS7003;59641;45.188;5.712;2023-02-18T00:11:13;22.50;21.75;15.50
71794;PMS7003;59641;45.188;5.712;2023-02-18T00:13:39;19.75;18.75;14.75
71794;PMS7003;59641;45.188;5.712;2023-02-18T00:16:08;20.50;18.25;15.00
71794;PMS7003;59641;45.188;5.712;2023-02-18T00:18:35;19.75;19.75;15.50
71794;PMS7003;59641;45.188;5.712;2023-02-18T00:21:02;21.25;19.75;15.75
71794;PMS7003;59641;45.188;5.712;2023-02-18T00:23:31;20.00;19.00;14.75
71794;PMS7003;59641;45.188;5.712;2023-02-18T00:26:16;19.50;17.75;12.50
71794;PMS7003;59641;45.188;5.712;2023-02-18T00:28:43;21.75;20.50;14.50
71794;PMS7003;59641;45.188;5.712;2023-02-18T00:31:10;16.50;16.50;13.50
71794;PMS7003;59641;45.188;5.712;2023-02-18T00:33:37;19.00;17.00;12.00
71794;PMS7003;59641;45.188;5.712;2023-02-18T00:36:04;22.25;21.00;14.50
71794;PMS7003;59641;45.188;5.712;2023-02-18T00:38:32;20.25;20.25;15.50
71794;PMS7003;59641;45.188;5.712;2023-02-18T00:40:57;21.25;21.00;14.25
71794;PMS7003;59641;45.188;5.712;2023-02-18T00:43:23;17.25;17.25;14.00
71794;PMS7003;59641;45.188;5.712;2023-02-18T00:45:49;22.33;21.00;15.00
71794;PMS7003;59641;45.188;5.712;2023-02-18T00:48:15;19.25;18.00;12.75
71794;PMS7003;59641;45.188;5.712;2023-02-18T00:50:40;17.75;17.50;13.00
71794;PMS7003;59641;45.188;5.712;2023-02-18T00:53:06;19.75;17.75;13.00
71794;PMS7003;59641;45.188;5.712;2023-02-18T00:55:31;21.00;19.00;14.50
71794;PMS7003;59641;45.188;5.712;2023-02-18T00:57:56;20.33;20.33;14.33
71794;PMS7003;59641;45.188;5.712;2023-02-18T01:00:22;21.00;21.00;15.00
71794;PMS7003;59641;45.188;5.712;2023-02-18T01:02:49;20.00;20.00;14.33
71794;PMS7003;59641;45.188;5.712;2023-02-18T01:05:19;23.00;21.67;16.33
71794;PMS7003;59641;45.188;5.712;2023-02-18T01:07:45;24.67;23.00;16.00
71794;PMS7003;59641;45.188;5.712;2023-02-18T01:10:11;24.00;21.67;17.00
71794;PMS7003;59641;45.188;5.712;2023-02-18T01:12:36;22.00;21.67;16.67
71794;PMS7003;59641;45.188;5.712;2023-02-18T01:15:02;25.33;23.67;17.00
71794;PMS7003;59641;45.188;5.712;2023-02-18T01:17:29;22.33;18.67;15.67
71794;PMS7003;59641;45.188;5.712;2023-02-18T01:19:55;19.67;18.67;15.33
71794;PMS7003;59641;45.188;5.712;2023-02-18T01:22:20;19.33;18.33;15.67
71794;PMS7003;59641;45.188;5.712;2023-02-18T01:24:45;21.67;21.00;16.00
71794;PMS7003;59641;45.188;5.712;2023-02-18T01:27:11;22.00;19.67;15.00
71794;PMS7003;59641;45.188;5.712;2023-02-18T01:29:36;18.00;17.75;13.75
71794;PMS7003;59641;45.188;5.712;2023-02-18T01:32:01;23.67;21.00;16.67
71794;PMS7003;59641;45.188;5.712;2023-02-18T01:34:27;25.00;23.00;16.00
71794;PMS7003;59641;45.188;5.712;2023-02-18T01:36:52;17.25;17.25;11.00
71794;PMS7003;59641;45.188;5.712;2023-02-18T01:39:17;26.67;23.00;17.00
71794;PMS7003;59641;45.188;5.712;2023-02-18T01:41:43;22.33;22.33;18.00
71794;PMS7003;59641;45.188;5.712;2023-02-18T01:44:19;24.00;24.00;18.33
71794;PMS7003;59641;45.188;5.712;2023-02-18T01:46:46;23.33;23.33;18.33
71794;PMS7003;59641;45.188;5.712;2023-02-18T01:49:14;23.33;23.33;17.00
71794;PMS7003;59641;45.188;5.712;2023-02-18T01:51:48;16.50;15.25;13.50
71794;PMS7003;59641;45.188;5.712;2023-02-18T01:56:53;23.00;22.67;19.00
71794;PMS7003;59641;45.188;5.712;2023-02-18T02:00:04;24.75;22.00;17.75
71794;PMS7003;59641;45.188;5.712;2023-02-18T02:02:13;22.75;21.50;16.75
71794;PMS7003;59641;45.188;5.712;2023-02-18T02:04:42;25.00;22.00;17.33
71794;PMS7003;59641;45.188;5.712;2023-02-18T02:07:08;22.75;21.00;17.25
71794;PMS7003;59641;45.188;5.712;2023-02-18T02:09:34;24.00;23.00;17.00
71794;PMS7003;59641;45.188;5.712;2023-02-18T02:25:24;27.33;24.33;17.00
71794;PMS7003;59641;45.188;5.712;2023-02-18T02:36:40;24.00;23.33;18.67
71794;PMS7003;59641;45.188;5.712;2023-02-18T02:42:19;25.00;24.00;18.33
71794;PMS7003;59641;45.188;5.712;2023-02-18T02:44:56;20.33;19.67;15.67
71794;PMS7003;59641;45.188;5.712;2023-02-18T02:50:19;23.67;22.33;15.67
71794;PMS7003;59641;45.188;5.712;2023-02-18T02:52:49;27.00;24.33;18.67
71794;PMS7003;59641;45.188;5.712;2023-02-18T02:55:19;24.75;20.75;15.75
71794;PMS7003;59641;45.188;5.712;2023-02-18T02:57:46;20.50;20.00;15.25
71794;PMS7003;59641;45.188;5.712;2023-02-18T03:00:14;23.33;22.67;17.33
71794;PMS7003;59641;45.188;5.712;2023-02-18T03:05:36;19.75;18.00;14.00
71794;PMS7003;59641;45.188;5.712;2023-02-18T03:08:28;23.00;21.33;15.00
71794;PMS7003;59641;45.188;5.712;2023-02-18T03:11:04;28.00;23.33;18.33
71794;PMS7003;59641;45.188;5.712;2023-02-18T03:16:21;24.00;23.00;16.00
71794;PMS7003;59641;45.188;5.712;2023-02-18T03:19:14;20.33;19.00;14.67
71794;PMS7003;59641;45.188;5.712;2023-02-18T03:21:48;21.00;21.00;16.00
71794;PMS7003;59641;45.188;5.712;2023-02-18T03:24:33;20.33;19.33;14.33
71794;PMS7003;59641;45.188;5.712;2023-02-18T03:27:05;24.00;20.67;18.00
71794;PMS7003;59641;45.188;5.712;2023-02-18T03:29:38;23.67;23.67;16.00
71794;PMS7003;59641;45.188;5.712;2023-02-18T03:32:07;24.50;23.00;17.25
71794;PMS7003;59641;45.188;5.712;2023-02-18T03:34:39;24.00;24.00;17.00
71794;PMS7003;59641;45.188;5.712;2023-02-18T03:37:08;27.00;23.67;19.00
71794;PMS7003;59641;45.188;5.712;2023-02-18T03:39:36;19.67;19.67;17.67
71794;PMS7003;59641;45.188;5.712;2023-02-18T03:42:05;23.00;22.00;17.25
71794;PMS7003;59641;45.188;5.712;2023-02-18T03:44:31;24.33;22.67;16.00
71794;PMS7003;59641;45.188;5.712;2023-02-18T03:46:57;24.33;22.67;16.67
71794;PMS7003;59641;45.188;5.712;2023-02-18T03:49:22;25.33;23.00;19.00
71794;PMS7003;59641;45.188;5.712;2023-02-18T03:51:47;28.33;22.33;17.00
71794;PMS7003;59641;45.188;5.712;2023-02-18T03:54:13;24.00;24.00;17.00
71794;PMS7003;59641;45.188;5.712;2023-02-18T03:56:38;25.67;24.00;17.33
71794;PMS7003;59641;45.188;5.712;2023-02-18T03:59:04;23.00;20.00;15.33
71794;PMS7003;59641;45.188;5.712;2023-02-18T04:01:29;24.00;23.67;17.00
71794;PMS7003;59641;45.188;5.712;2023-02-18T04:03:55;23.00;21.25;17.25
71794;PMS7003;59641;45.188;5.712;2023-02-18T04:06:21;24.67;21.33;15.33
71794;PMS7003;59641;45.188;5.712;2023-02-18T04:08:48;23.00;23.00;16.33
71794;PMS7003;59641;45.188;5.712;2023-02-18T04:11:14;23.00;22.33;17.67
71794;PMS7003;59641;45.188;5.712;2023-02-18T04:13:39;47.33;36.67;26.00
71794;PMS7003;59641;45.188;5.712;2023-02-18T04:16:05;49.00;40.00;28.00
71794;PMS7003;59641;45.188;5.712;2023-02-18T04:18:30;59.33;46.33;33.33
71794;PMS7003;59641;45.188;5.712;2023-02-18T04:20:56;64.33;52.67;35.33
71794;PMS7003;59641;45.188;5.712;2023-02-18T04:23:21;71.50;56.75;38.75
71794;PMS7003;59641;45.188;5.712;2023-02-18T04:25:46;67.00;53.25;39.75
71794;PMS7003;59641;45.188;5.712;2023-02-18T04:28:13;70.50;56.75;37.25
71794;PMS7003;59641;45.188;5.712;2023-02-18T04:30:39;60.25;47.50;35.25
71794;PMS7003;59641;45.188;5.712;2023-02-18T04:33:05;58.33;46.67;31.33
71794;PMS7003;59641;45.188;5.712;2023-02-18T04:35:30;49.00;41.33;29.00
71794;PMS7003;59641;45.188;5.712;2023-02-18T04:37:56;43.67;36.67;25.00
71794;PMS7003;59641;45.188;5.712;2023-02-18T04:40:21;31.00;27.67;17.67
71794;PMS7003;59641;45.188;5.712;2023-02-18T04:42:49;35.00;31.67;22.00
71794;PMS7003;59641;45.188;5.712;2023-02-18T04:45:14;33.00;31.33;22.00
71794;PMS7003;59641;45.188;5.712;2023-02-18T04:47:40;29.67;28.33;21.00
71794;PMS7003;59641;45.188;5.712;2023-02-18T04:50:05;31.33;29.33;20.67
71794;PMS7003;59641;45.188;5.712;2023-02-18T04:52:31;29.33;25.33;19.67
71794;PMS7003;59641;45.188;5.712;2023-02-18T04:54:57;31.33;28.00;20.00
71794;PMS7003;59641;45.188;5.712;2023-02-18T04:57:22;28.00;25.67;19.00
71794;PMS7003;59641;45.188;5.712;2023-02-18T04:59:47;29.00;28.33;21.00
71794;PMS7003;59641;45.188;5.712;2023-02-18T05:02:13;30.00;27.00;19.00
71794;PMS7003;59641;45.188;5.712;2023-02-18T05:04:38;28.67;25.67;18.00
71794;PMS7003;59641;45.188;5.712;2023-02-18T05:07:03;23.67;22.00;17.33
71794;PMS7003;59641;45.188;5.712;2023-02-18T05:09:29;27.33;24.00;18.00
71794;PMS7003;59641;45.188;5.712;2023-02-18T05:11:54;30.00;29.00;20.00
71794;PMS7003;59641;45.188;5.712;2023-02-18T05:14:19;29.00;27.67;20.00
71794;PMS7003;59641;45.188;5.712;2023-02-18T05:16:45;26.00;23.00;18.33
71794;PMS7003;59641;45.188;5.712;2023-02-18T05:19:13;28.67;28.00;20.00
71794;PMS7003;59641;45.188;5.712;2023-02-18T05:21:39;26.33;24.00;17.33
71794;PMS7003;59641;45.188;5.712;2023-02-18T05:24:05;24.00;22.00;18.67
71794;PMS7003;59641;45.188;5.712;2023-02-18T05:26:30;27.00;22.00;17.67
71794;PMS7003;59641;45.188;5.712;2023-02-18T05:28:56;21.00;19.67;15.00
71794;PMS7003;59641;45.188;5.712;2023-02-18T05:31:21;23.33;22.00;16.33
71794;PMS7003;59641;45.188;5.712;2023-02-18T05:33:47;19.33;19.33;15.00
71794;PMS7003;59641;45.188;5.712;2023-02-18T05:36:12;24.33;21.33;16.00
71794;PMS7003;59641;45.188;5.712;2023-02-18T05:38:38;21.33;19.33;13.33
71794;PMS7003;59641;45.188;5.712;2023-02-18T05:41:03;23.00;22.00;15.33
71794;PMS7003;59641;45.188;5.712;2023-02-18T05:43:28;21.67;21.33;16.00
71794;PMS7003;59641;45.188;5.712;2023-02-18T05:45:54;22.33;22.33;16.67
71794;PMS7003;59641;45.188;5.712;2023-02-18T05:48:19;23.00;20.00;14.00
71794;PMS7003;59641;45.188;5.712;2023-02-18T05:50:45;28.00;24.33;18.00
71794;PMS7003;59641;45.188;5.712;2023-02-18T05:53:10;23.67;22.67;16.33
71794;PMS7003;59641;45.188;5.712;2023-02-18T05:55:36;32.67;29.00;20.00
71794;PMS7003;59641;45.188;5.712;2023-02-18T05:58:03;27.67;27.33;19.33
71794;PMS7003;59641;45.188;5.712;2023-02-18T06:00:29;33.67;30.33;21.33
71794;PMS7003;59641;45.188;5.712;2023-02-18T06:02:56;32.67;28.33;21.67
71794;PMS7003;59641;45.188;5.712;2023-02-18T06:05:21;32.00;28.33;20.00
71794;PMS7003;59641;45.188;5.712;2023-02-18T06:07:47;28.67;26.33;18.33
71794;PMS7003;59641;45.188;5.712;2023-02-18T06:10:12;31.00;27.00;18.33
71794;PMS7003;59641;45.188;5.712;2023-02-18T06:12:38;30.67;29.33;20.00
71794;PMS7003;59641;45.188;5.712;2023-02-18T06:15:03;35.33;29.33;20.00
71794;PMS7003;59641;45.188;5.712;2023-02-18T06:17:29;27.67;26.00;18.00
71794;PMS7003;59641;45.188;5.712;2023-02-18T06:19:54;28.00;27.67;20.00
71794;PMS7003;59641;45.188;5.712;2023-02-18T06:22:19;31.00;26.67;19.00
71794;PMS7003;59641;45.188;5.712;2023-02-18T06:24:46;30.67;28.00;20.00
71794;PMS7003;59641;45.188;5.712;2023-02-18T06:27:11;28.67;26.00;19.67
71794;PMS7003;59641;45.188;5.712;2023-02-18T06:29:37;32.00;28.33;19.33
71794;PMS7003;59641;45.188;5.712;2023-02-18T06:32:02;24.00;20.00;12.33
71794;PMS7003;59641;45.188;5.712;2023-02-18T06:34:28;22.67;21.67;16.33
71794;PMS7003;59641;45.188;5.712;2023-02-18T06:36:53;23.33;21.00;16.00
71794;PMS7003;59641;45.188;5.712;2023-02-18T06:39:18;24.00;23.33;16.00
71794;PMS7003;59641;45.188;5.712;2023-02-18T06:41:44;24.67;23.00;17.00
71794;PMS7003;59641;45.188;5.712;2023-02-18T06:44:09;25.33;23.33;15.67
71794;PMS7003;59641;45.188;5.712;2023-02-18T06:46:35;23.33;22.00;17.00
71794;PMS7003;59641;45.188;5.712;2023-02-18T06:49:01;25.67;24.67;19.00
71794;PMS7003;59641;45.188;5.712;2023-02-18T06:51:27;30.33;27.33;18.67
71794;PMS7003;59641;45.188;5.712;2023-02-18T06:53:53;29.00;27.33;19.33
71794;PMS7003;59641;45.188;5.712;2023-02-18T06:56:18;27.67;27.00;17.67
71794;PMS7003;59641;45.188;5.712;2023-02-18T06:58:43;31.00;29.00;19.67
71794;PMS7003;59641;45.188;5.712;2023-02-18T07:01:09;27.33;23.00;16.33
71794;PMS7003;59641;45.188;5.712;2023-02-18T07:03:34;27.00;24.00;17.00
71794;PMS7003;59641;45.188;5.712;2023-02-18T07:06:00;25.00;23.00;18.00
71794;PMS7003;59641;45.188;5.712;2023-02-18T07:08:25;26.67;26.33;19.00
71794;PMS7003;59641;45.188;5.712;2023-02-18T07:10:50;29.67;26.33;19.00
71794;PMS7003;59641;45.188;5.712;2023-02-18T07:13:16;24.00;23.67;17.00
71794;PMS7003;59641;45.188;5.712;2023-02-18T07:15:41;27.00;24.00;17.00
71794;PMS7003;59641;45.188;5.712;2023-02-18T07:18:07;25.00;24.33;17.33
71794;PMS7003;59641;45.188;5.712;2023-02-18T07:20:32;25.33;24.00;18.00
71794;PMS7003;59641;45.188;5.712;2023-02-18T07:22:58;29.00;27.00;19.00
71794;PMS7003;59641;45.188;5.712;2023-02-18T07:25:23;28.67;26.00;19.67
71794;PMS7003;59641;45.188;5.712;2023-02-18T07:27:49;26.33;24.00;18.00
71794;PMS7003;59641;45.188;5.712;2023-02-18T07:30:15;25.33;25.00;16.00
71794;PMS7003;59641;45.188;5.712;2023-02-18T07:32:41;21.67;19.00;15.67
71794;PMS7003;59641;45.188;5.712;2023-02-18T07:35:07;24.00;24.00;17.00
71794;PMS7003;59641;45.188;5.712;2023-02-18T07:37:34;27.67;26.00;18.00
71794;PMS7003;59641;45.188;5.712;2023-02-18T07:39:59;22.67;22.67;16.00
71794;PMS7003;59641;45.188;5.712;2023-02-18T07:42:25;33.00;31.33;22.33
71794;PMS7003;59641;45.188;5.712;2023-02-18T07:44:50;34.33;29.67;21.00
71794;PMS7003;59641;45.188;5.712;2023-02-18T07:47:16;26.67;21.67;15.67
71794;PMS7003;59641;45.188;5.712;2023-02-18T07:49:45;27.33;26.67;20.00
71794;PMS7003;59641;45.188;5.712;2023-02-18T07:52:11;29.00;26.00;17.33
71794;PMS7003;59641;45.188;5.712;2023-02-18T07:54:38;29.00;27.33;20.33
71794;PMS7003;59641;45.188;5.712;2023-02-18T07:57:03;24.67;23.33;19.33
71794;PMS7003;59641;45.188;5.712;2023-02-18T07:59:29;31.00;30.00;20.67
71794;PMS7003;59641;45.188;5.712;2023-02-18T08:01:54;30.33;26.00;18.00
71794;PMS7003;59641;45.188;5.712;2023-02-18T08:04:20;27.67;25.33;18.00
71794;PMS7003;59641;45.188;5.712;2023-02-18T08:06:46;22.33;21.33;16.67
71794;PMS7003;59641;45.188;5.712;2023-02-18T08:09:14;25.33;21.33;15.00
71794;PMS7003;59641;45.188;5.712;2023-02-18T08:11:40;22.67;22.67;15.67
71794;PMS7003;59641;45.188;5.712;2023-02-18T08:14:06;21.00;19.00;16.00
71794;PMS7003;59641;45.188;5.712;2023-02-18T08:16:32;33.00;28.67;18.00
71794;PMS7003;59641;45.188;5.712;2023-02-18T08:18:58;23.00;22.00;16.00
71794;PMS7003;59641;45.188;5.712;2023-02-18T08:21:25;24.33;23.33;16.33
71794;PMS7003;59641;45.188;5.712;2023-02-18T08:23:51;31.33;24.33;17.00
71794;PMS7003;59641;45.188;5.712;2023-02-18T08:26:17;23.00;23.00;17.00
71794;PMS7003;59641;45.188;5.712;2023-02-18T08:28:44;27.00;24.00;15.33
71794;PMS7003;59641;45.188;5.712;2023-02-18T08:31:18;22.00;20.33;17.00
71794;PMS7003;59641;45.188;5.712;2023-02-18T08:33:49;24.00;24.00;17.00
71794;PMS7003;59641;45.188;5.712;2023-02-18T08:36:15;23.33;21.33;16.67
71794;PMS7003;59641;45.188;5.712;2023-02-18T08:38:40;32.67;28.67;19.33
71794;PMS7003;59641;45.188;5.712;2023-02-18T08:41:07;24.00;23.33;18.00
71794;PMS7003;59641;45.188;5.712;2023-02-18T08:43:33;20.67;20.67;16.67
71794;PMS7003;59641;45.188;5.712;2023-02-18T08:45:59;25.00;22.33;17.67
71794;PMS7003;59641;45.188;5.712;2023-02-18T08:48:25;30.33;28.67;21.00
71794;PMS7003;59641;45.188;5.712;2023-02-18T08:50:51;29.00;26.67;20.00
71794;PMS7003;59641;45.188;5.712;2023-02-18T08:53:16;27.67;25.00;19.67
71794;PMS7003;59641;45.188;5.712;2023-02-18T08:55:43;21.67;21.67;18.00
71794;PMS7003;59641;45.188;5.712;2023-02-18T08:58:08;26.00;24.00;17.33
71794;PMS7003;59641;45.188;5.712;2023-02-18T09:00:34;26.33;25.00;19.00
71794;PMS7003;59641;45.188;5.712;2023-02-18T09:03:00;26.33;22.67;16.00
71794;PMS7003;59641;45.188;5.712;2023-02-18T09:05:26;21.33;19.00;14.67
71794;PMS7003;59641;45.188;5.712;2023-02-18T09:07:51;24.67;23.00;18.00
71794;PMS7003;59641;45.188;5.712;2023-02-18T09:10:17;22.00;19.33;14.67
71794;PMS7003;59641;45.188;5.712;2023-02-18T09:12:42;31.00;28.00;20.00
71794;PMS7003;59641;45.188;5.712;2023-02-18T09:15:08;25.75;23.50;16.75
71794;PMS7003;59641;45.188;5.712;2023-02-18T09:17:33;22.67;19.67;16.00
71794;PMS7003;59641;45.188;5.712;2023-02-18T09:19:59;24.33;22.00;15.67
71794;PMS7003;59641;45.188;5.712;2023-02-18T09:22:24;18.67;18.67;13.33
71794;PMS7003;59641;45.188;5.712;2023-02-18T09:24:50;18.50;17.25;13.00
71794;PMS7003;59641;45.188;5.712;2023-02-18T09:27:15;18.25;17.00;14.00
71794;PMS7003;59641;45.188;5.712;2023-02-18T09:29:41;19.25;16.75;11.75
71794;PMS7003;59641;45.188;5.712;2023-02-18T09:32:07;18.25;17.50;13.00
71794;PMS7003;59641;45.188;5.712;2023-02-18T09:34:34;15.00;14.00;10.75
71794;PMS7003;59641;45.188;5.712;2023-02-18T09:37:00;15.50;14.00;11.00
71794;PMS7003;59641;45.188;5.712;2023-02-18T09:39:25;20.00;19.00;13.33
71794;PMS7003;59641;45.188;5.712;2023-02-18T09:41:54;17.67;17.33;13.33
71794;PMS7003;59641;45.188;5.712;2023-02-18T09:49:37;15.00;14.75;12.50
71794;PMS7003;59641;45.188;5.712;2023-02-18T09:52:21;18.00;14.75;11.00
71794;PMS7003;59641;45.188;5.712;2023-02-18T09:54:53;26.00;21.67;16.00
71794;PMS7003;59641;45.188;5.712;2023-02-18T09:57:32;25.67;23.33;15.00
71794;PMS7003;59641;45.188;5.712;2023-02-18T10:00:14;19.00;18.00;13.00
71794;PMS7003;59641;45.188;5.712;2023-02-18T10:02:48;21.25;20.50;14.00
71794;PMS7003;59641;45.188;5.712;2023-02-18T10:05:15;19.50;19.25;14.75
71794;PMS7003;59641;45.188;5.712;2023-02-18T10:07:41;21.00;20.25;15.75
71794;PMS7003;59641;45.188;5.712;2023-02-18T10:10:21;21.75;18.50;14.75
71794;PMS7003;59641;45.188;5.712;2023-02-18T10:12:58;19.00;19.00;14.75
71794;PMS7003;59641;45.188;5.712;2023-02-18T10:15:27;22.00;22.00;15.75
71794;PMS7003;59641;45.188;5.712;2023-02-18T10:17:55;24.25;20.50;16.25
71794;PMS7003;59641;45.188;5.712;2023-02-18T10:20:24;20.50;20.00;16.00
71794;PMS7003;59641;45.188;5.712;2023-02-18T10:22:53;19.25;17.25;13.75
71794;PMS7003;59641;45.188;5.712;2023-02-18T10:25:22;20.25;19.75;14.75
71794;PMS7003;59641;45.188;5.712;2023-02-18T10:27:50;16.00;16.00;12.50
71794;PMS7003;59641;45.188;5.712;2023-02-18T10:33:00;18.75;16.25;13.50
71794;PMS7003;59641;45.188;5.712;2023-02-18T10:35:43;14.25;14.25;11.50
71794;PMS7003;59641;45.188;5.712;2023-02-18T10:38:39;22.00;16.75;13.25
71794;PMS7003;59641;45.188;5.712;2023-02-18T10:41:21;23.67;22.00;14.67
71794;PMS7003;59641;45.188;5.712;2023-02-18T10:46:53;17.75;17.75;14.00
71794;PMS7003;59641;45.188;5.712;2023-02-18T10:52:15;20.75;17.25;12.75
71794;PMS7003;59641;45.188;5.712;2023-02-18T10:54:50;16.75;15.50;12.25
71794;PMS7003;59641;45.188;5.712;2023-02-18T10:57:22;17.50;16.75;12.75
71794;PMS7003;59641;45.188;5.712;2023-02-18T10:59:56;15.00;15.00;11.75
71794;PMS7003;59641;45.188;5.712;2023-02-18T11:02:35;20.75;16.75;11.50
71794;PMS7003;59641;45.188;5.712;2023-02-18T11:05:05;16.00;13.75;11.00
71794;PMS7003;59641;45.188;5.712;2023-02-18T11:07:43;17.25;16.00;12.00
71794;PMS7003;59641;45.188;5.712;2023-02-18T11:10:15;20.00;19.25;12.75
71794;PMS7003;59641;45.188;5.712;2023-02-18T11:12:50;18.00;16.00;11.75
71794;PMS7003;59641;45.188;5.712;2023-02-18T11:15:27;15.50;15.50;11.00
71794;PMS7003;59641;45.188;5.712;2023-02-18T11:17:57;12.80;12.60;9.80
71794;PMS7003;59641;45.188;5.712;2023-02-18T11:20:36;15.25;14.25;8.25
71794;PMS7003;59641;45.188;5.712;2023-02-18T11:25:32;15.25;12.50;9.25
71794;PMS7003;59641;45.188;5.712;2023-02-18T11:28:01;13.00;13.00;9.00
71794;PMS7003;59641;45.188;5.712;2023-02-18T11:30:30;13.75;12.50;9.50
71794;PMS7003;59641;45.188;5.712;2023-02-18T11:33:01;15.75;15.50;12.75
71794;PMS7003;59641;45.188;5.712;2023-02-18T11:35:38;18.25;16.00;12.25
71794;PMS7003;59641;45.188;5.712;2023-02-18T11:38:20;18.50;18.50;12.75
71794;PMS7003;59641;45.188;5.712;2023-02-18T11:40:58;18.50;16.00;12.00
71794;PMS7003;59641;45.188;5.712;2023-02-18T11:43:33;15.25;15.00;11.00
71794;PMS7003;59641;45.188;5.712;2023-02-18T11:48:39;14.75;14.75;11.25
71794;PMS7003;59641;45.188;5.712;2023-02-18T11:51:05;18.00;17.75;13.25
71794;PMS7003;59641;45.188;5.712;2023-02-18T11:53:38;17.50;17.25;12.00
71794;PMS7003;59641;45.188;5.712;2023-02-18T11:56:05;14.00;13.50;11.25
71794;PMS7003;59641;45.188;5.712;2023-02-18T11:58:42;20.25;18.00;12.75
71794;PMS7003;59641;45.188;5.712;2023-02-18T12:01:35;15.75;14.75;11.50
71794;PMS7003;59641;45.188;5.712;2023-02-18T12:04:07;15.50;14.50;10.00
71794;PMS7003;59641;45.188;5.712;2023-02-18T12:07:23;13.00;12.60;10.00
71794;PMS7003;59641;45.188;5.712;2023-02-18T12:09:30;13.50;13.25;10.00
71794;PMS7003;59641;45.188;5.712;2023-02-18T12:12:23;12.25;11.25;9.00
71794;PMS7003;59641;45.188;5.712;2023-02-18T12:14:54;14.00;12.25;7.50
71794;PMS7003;59641;45.188;5.712;2023-02-18T13:05:59;5.00;5.00;3.75
71794;PMS7003;59641;45.188;5.712;2023-02-18T13:11:22;3.75;3.25;2.25
71794;PMS7003;59641;45.188;5.712;2023-02-18T13:14:23;7.20;7.20;6.00
71794;PMS7003;59641;45.188;5.712;2023-02-18T13:16:54;7.00;7.00;4.80
71794;PMS7003;59641;45.188;5.712;2023-02-18T13:19:26;5.00;5.00;4.00
71794;PMS7003;59641;45.188;5.712;2023-02-18T13:22:01;3.25;3.25;2.00
71794;PMS7003;59641;45.188;5.712;2023-02-18T13:24:32;4.40;4.40;3.00
71794;PMS7003;59641;45.188;5.712;2023-02-18T13:40:31;3.60;3.60;3.60
71794;PMS7003;59641;45.188;5.712;2023-02-18T13:45:45;3.00;3.00;2.40
71794;PMS7003;59641;45.188;5.712;2023-02-18T13:48:29;3.00;3.00;1.00
71794;PMS7003;59641;45.188;5.712;2023-02-18T13:51:03;4.20;3.20;2.00
71794;PMS7003;59641;45.188;5.712;2023-02-18T13:53:31;2.00;2.00;1.00
71794;PMS7003;59641;45.188;5.712;2023-02-18T13:58:50;2.00;2.00;1.80
71794;PMS7003;59641;45.188;5.712;2023-02-18T14:01:24;2.60;2.60;2.00
71794;PMS7003;59641;45.188;5.712;2023-02-18T14:03:58;2.50;2.00;1.00
71794;PMS7003;59641;45.188;5.712;2023-02-18T14:06:32;3.00;3.00;2.20
71794;PMS7003;59641;45.188;5.712;2023-02-18T14:09:03;3.00;1.00;1.00
71794;PMS7003;59641;45.188;5.712;2023-02-18T14:11:53;2.80;1.60;1.00
71794;PMS7003;59641;45.188;5.712;2023-02-18T14:25:36;2.60;2.20;1.60
71794;PMS7003;59641;45.188;5.712;2023-02-18T14:28:03;3.00;2.00;1.00
71794;PMS7003;59641;45.188;5.712;2023-02-18T14:30:48;1.40;1.40;1.00
71794;PMS7003;59641;45.188;5.712;2023-02-18T14:33:15;3.00;3.00;1.00
71794;PMS7003;59641;45.188;5.712;2023-02-18T14:35:52;1.80;1.80;1.60
71794;PMS7003;59641;45.188;5.712;2023-02-18T14:43:52;2.20;2.20;1.20
71794;PMS7003;59641;45.188;5.712;2023-02-18T14:49:38;4.40;2.20;2.00
71794;PMS7003;59641;45.188;5.712;2023-02-18T14:52:22;3.00;3.00;2.00
71794;PMS7003;59641;45.188;5.712;2023-02-18T14:54:55;3.40;2.80;1.80
71794;PMS7003;59641;45.188;5.712;2023-02-18T14:57:28;2.00;2.00;1.00
71794;PMS7003;59641;45.188;5.712;2023-02-18T14:59:59;2.00;2.00;1.60
71794;PMS7003;59641;45.188;5.712;2023-02-18T15:02:26;3.25;3.25;1.75
71794;PMS7003;59641;45.188;5.712;2023-02-18T15:05:04;3.60;3.60;2.00
71794;PMS7003;59641;45.188;5.712;2023-02-18T15:07:37;1.00;1.00;1.00
71794;PMS7003;59641;45.188;5.712;2023-02-18T15:10:02;2.00;2.00;0.75
71794;PMS7003;59641;45.188;5.712;2023-02-18T15:12:28;0.25;0.25;0.00
71794;PMS7003;59641;45.188;5.712;2023-02-18T15:14:54;1.20;1.20;1.00
71794;PMS7003;59641;45.188;5.712;2023-02-18T15:17:26;1.00;1.00;1.00
71794;PMS7003;59641;45.188;5.712;2023-02-18T15:19:54;0.00;0.00;0.00
71794;PMS7003;59641;45.188;5.712;2023-02-18T15:22:24;2.60;2.60;2.00
71794;PMS7003;59641;45.188;5.712;2023-02-18T15:24:52;1.80;1.80;1.00
71794;PMS7003;59641;45.188;5.712;2023-02-18T15:27:20;2.00;2.00;1.00
71794;PMS7003;59641;45.188;5.712;2023-02-18T15:29:55;2.20;2.20;1.40
71794;PMS7003;59641;45.188;5.712;2023-02-18T15:32:27;2.00;2.00;0.20
71794;PMS7003;59641;45.188;5.712;2023-02-18T15:34:59;2.80;2.80;1.60
71794;PMS7003;59641;45.188;5.712;2023-02-18T15:37:26;3.25;3.25;2.00
71794;PMS7003;59641;45.188;5.712;2023-02-18T15:39:53;2.00;1.80;1.00
71794;PMS7003;59641;45.188;5.712;2023-02-18T15:45:01;7.00;7.00;5.60
71794;PMS7003;59641;45.188;5.712;2023-02-18T15:47:29;4.00;4.00;3.00
71794;PMS7003;59641;45.188;5.712;2023-02-18T15:49:57;4.40;4.40;3.40
71794;PMS7003;59641;45.188;5.712;2023-02-18T15:52:26;2.40;2.40;2.00
71794;PMS7003;59641;45.188;5.712;2023-02-18T15:54:54;2.40;2.40;2.00
71794;PMS7003;59641;45.188;5.712;2023-02-18T15:57:25;3.50;3.00;2.00
71794;PMS7003;59641;45.188;5.712;2023-02-18T15:59:54;3.60;3.60;3.00
71794;PMS7003;59641;45.188;5.712;2023-02-18T16:02:28;3.60;3.60;3.00
71794;PMS7003;59641;45.188;5.712;2023-02-18T16:04:54;4.75;4.75;3.00
71794;PMS7003;59641;45.188;5.712;2023-02-18T16:07:24;6.00;4.00;3.00
71794;PMS7003;59641;45.188;5.712;2023-02-18T16:12:38;5.50;4.00;3.00
71794;PMS7003;59641;45.188;5.712;2023-02-18T16:15:04;3.50;3.50;2.00
71794;PMS7003;59641;45.188;5.712;2023-02-18T16:17:31;6.00;5.00;4.00
71794;PMS7003;59641;45.188;5.712;2023-02-18T16:22:53;2.60;2.60;2.00
71794;PMS7003;59641;45.188;5.712;2023-02-18T16:25:23;4.50;3.00;2.25
71794;PMS7003;59641;45.188;5.712;2023-02-18T16:27:54;4.60;4.60;3.60
71794;PMS7003;59641;45.188;5.712;2023-02-18T16:30:31;3.40;3.40;3.00
71794;PMS7003;59641;45.188;5.712;2023-02-18T16:32:59;3.00;3.00;3.00
71794;PMS7003;59641;45.188;5.712;2023-02-18T16:35:26;1.75;1.75;1.75
71794;PMS7003;59641;45.188;5.712;2023-02-18T16:37:54;3.80;3.80;3.00